Time;durP1;ratioP1;P1;durP2;ratioP2;P2;SDS_P1;SDS_P2;PMS_P1;PMS_P2;Temp;Humidity;BMP_temperature;BMP_pressure;BME280_temperature;BME280_humidity;BME280_pressure;Samples;Min_cycle;Max_cycle;Signal;HPM_P1;HPM_P2
2022/03/12 00:00:34;;;;;;;2.77;2.57;;;;;;;;;;5156796;27;20204;-68
2022/03/12 00:03:22;;;;;;;2.80;2.60;;;;;;;;;;5150247;27;20232;-68
2022/03/12 00:06:09;;;;;;;2.97;2.77;;;;;;;;;;5154249;27;20201;-68
2022/03/12 00:08:57;;;;;;;2.93;2.73;;;;;;;;;;5159623;27;20333;-68
2022/03/12 00:11:51;;;;;;;3.10;2.90;;;;;;;;;;5160462;27;20201;-68
2022/03/12 00:14:39;;;;;;;4.10;2.77;;;;;;;;;;5152872;27;20308;-68
2022/03/12 00:17:29;;;;;;;2.80;2.60;;;;;;;;;;5152089;27;20241;-68
2022/03/12 00:20:19;;;;;;;2.70;2.60;;;;;;;;;;5160881;27;20209;-68
2022/03/12 00:23:12;;;;;;;3.00;2.80;;;;;;;;;;5157702;27;20189;-68
2022/03/12 00:26:00;;;;;;;2.60;2.50;;;;;;;;;;5162816;27;20209;-68
2022/03/12 00:28:47;;;;;;;2.90;2.70;;;;;;;;;;5159623;27;20197;-68
2022/03/12 00:31:35;;;;;;;3.03;2.83;;;;;;;;;;5150891;27;20315;-68
2022/03/12 00:34:22;;;;;;;2.83;2.63;;;;;;;;;;5151808;27;20215;-68
2022/03/12 00:37:09;;;;;;;2.87;2.60;;;;;;;;;;5153387;27;20332;-68
2022/03/12 00:39:56;;;;;;;2.97;2.60;;;;;;;;;;5158639;27;20594;-68
2022/03/12 00:42:44;;;;;;;2.87;2.67;;;;;;;;;;5156891;27;20233;-68
2022/03/12 00:45:31;;;;;;;2.80;2.60;;;;;;;;;;5150163;27;20243;-68
2022/03/12 00:48:20;;;;;;;2.83;2.63;;;;;;;;;;5158100;27;20677;-68
2022/03/12 00:51:07;;;;;;;2.60;2.40;;;;;;;;;;5152962;27;20206;-68
2022/03/12 00:53:54;;;;;;;2.93;2.60;;;;;;;;;;5155978;27;20247;-68
2022/03/12 00:56:41;;;;;;;2.80;2.63;;;;;;;;;;5156138;27;20291;-69
2022/03/12 00:59:27;;;;;;;2.80;2.70;;;;;;;;;;5153877;27;20652;-68
2022/03/12 01:02:16;;;;;;;2.73;2.53;;;;;;;;;;5160595;27;20258;-69
2022/03/12 01:05:05;;;;;;;2.80;2.60;;;;;;;;;;5156804;27;20197;-70
2022/03/12 01:07:52;;;;;;;2.80;2.60;;;;;;;;;;5159692;27;20693;-68
2022/03/12 01:10:39;;;;;;;2.60;2.50;;;;;;;;;;5156221;27;20685;-68
2022/03/12 01:13:28;;;;;;;3.00;2.53;;;;;;;;;;5153304;27;20336;-69
2022/03/12 01:16:15;;;;;;;2.30;2.20;;;;;;;;;;5155063;27;20659;-69
2022/03/12 01:19:02;;;;;;;2.90;2.70;;;;;;;;;;5159372;27;20209;-69
2022/03/12 01:21:50;;;;;;;2.73;2.53;;;;;;;;;;5155243;27;20686;-68
2022/03/12 01:24:37;;;;;;;3.07;2.77;;;;;;;;;;5149236;27;20269;-68
2022/03/12 01:27:24;;;;;;;2.70;2.50;;;;;;;;;;5151952;27;20233;-69
2022/03/12 01:30:12;;;;;;;2.70;2.50;;;;;;;;;;5157531;27;20213;-69
2022/03/12 01:32:59;;;;;;;2.80;2.60;;;;;;;;;;5157293;27;20221;-69
2022/03/12 01:35:46;;;;;;;2.73;2.53;;;;;;;;;;5155061;27;20668;-68
2022/03/12 01:38:36;;;;;;;2.40;2.30;;;;;;;;;;5157164;27;20204;-69
2022/03/12 01:41:25;;;;;;;2.90;2.70;;;;;;;;;;5155089;27;20342;-68
2022/03/12 01:44:14;;;;;;;3.10;2.90;;;;;;;;;;5157693;27;20196;-68
2022/03/12 01:47:07;;;;;;;2.67;2.47;;;;;;;;;;5160070;27;20690;-70
2022/03/12 01:49:55;;;;;;;2.60;2.47;;;;;;;;;;5160257;27;20325;-68
2022/03/12 01:52:42;;;;;;;2.47;2.37;;;;;;;;;;5162823;27;20280;-69
2022/03/12 01:55:32;;;;;;;2.73;2.53;;;;;;;;;;5163696;27;20276;-69
2022/03/12 01:58:19;;;;;;;2.70;2.50;;;;;;;;;;5158769;27;20664;-69
2022/03/12 02:01:06;;;;;;;2.60;2.40;;;;;;;;;;5163295;27;20209;-69
2022/03/12 02:03:53;;;;;;;3.00;2.80;;;;;;;;;;5156743;27;20681;-69
2022/03/12 02:06:43;;;;;;;3.00;2.80;;;;;;;;;;5156952;27;20200;-69
2022/03/12 02:09:30;;;;;;;3.20;3.00;;;;;;;;;;5161508;27;20212;-68
2022/03/12 02:12:18;;;;;;;2.90;2.70;;;;;;;;;;5161844;27;20196;-69
2022/03/12 02:15:06;;;;;;;2.83;2.63;;;;;;;;;;5158373;27;20210;-69
2022/03/12 02:17:53;;;;;;;2.87;2.67;;;;;;;;;;5162334;27;20215;-69
2022/03/12 02:20:40;;;;;;;2.87;2.67;;;;;;;;;;5168147;27;20272;-68
2022/03/12 02:23:27;;;;;;;2.90;2.70;;;;;;;;;;5155388;27;20200;-69
2022/03/12 02:26:15;;;;;;;2.57;2.47;;;;;;;;;;5153030;27;20657;-69
2022/03/12 02:29:02;;;;;;;2.90;2.67;;;;;;;;;;5160139;27;20325;-69
2022/03/12 02:31:51;;;;;;;3.17;2.97;;;;;;;;;;5162525;27;20283;-68
2022/03/12 02:34:42;;;;;;;2.70;2.50;;;;;;;;;;5159644;27;20761;-68
2022/03/12 02:37:30;;;;;;;2.93;2.73;;;;;;;;;;5157942;27;20200;-69
2022/03/12 02:40:17;;;;;;;2.87;2.67;;;;;;;;;;5157536;27;20210;-68
2022/03/12 02:43:06;;;;;;;2.80;2.60;;;;;;;;;;5156426;27;20635;-69
2022/03/12 02:45:55;;;;;;;2.90;2.70;;;;;;;;;;5157440;27;20211;-68
2022/03/12 02:48:48;;;;;;;3.00;2.80;;;;;;;;;;5160938;27;20220;-69
2022/03/12 02:51:35;;;;;;;3.40;3.10;;;;;;;;;;5154340;27;20204;-69
2022/03/12 02:54:22;;;;;;;3.30;3.10;;;;;;;;;;5155914;27;20236;-69
2022/03/12 02:57:09;;;;;;;3.10;2.90;;;;;;;;;;5157674;27;20288;-68
2022/03/12 03:00:04;;;;;;;2.90;2.70;;;;;;;;;;5161407;27;20232;-69
2022/03/12 03:02:53;;;;;;;2.70;2.50;;;;;;;;;;5163153;27;20575;-69
2022/03/12 03:05:46;;;;;;;3.10;2.90;;;;;;;;;;5157456;27;20192;-69
2022/03/12 03:08:36;;;;;;;3.00;2.80;;;;;;;;;;5159314;27;20207;-69
2022/03/12 03:11:29;;;;;;;2.83;2.63;;;;;;;;;;5158168;27;20615;-69
2022/03/12 03:14:19;;;;;;;2.83;2.63;;;;;;;;;;5155692;27;20307;-69
2022/03/12 03:17:11;;;;;;;2.90;2.70;;;;;;;;;;5158276;27;20200;-69
2022/03/12 03:19:58;;;;;;;3.40;3.10;;;;;;;;;;5159927;27;20679;-68
2022/03/12 03:22:45;;;;;;;3.50;3.20;;;;;;;;;;5156678;27;20974;-68
2022/03/12 03:25:32;;;;;;;2.93;2.73;;;;;;;;;;5155862;27;20288;-68
2022/03/12 03:28:19;;;;;;;3.13;2.90;;;;;;;;;;5157489;27;20676;-68
2022/03/12 03:31:07;;;;;;;2.63;2.50;;;;;;;;;;5160287;27;20197;-68
2022/03/12 03:33:55;;;;;;;3.00;2.80;;;;;;;;;;5161457;27;20307;-69
2022/03/12 03:36:43;;;;;;;2.93;2.73;;;;;;;;;;5153756;27;20204;-69
2022/03/12 03:39:30;;;;;;;3.00;2.70;;;;;;;;;;5149938;27;20205;-69
2022/03/12 03:42:21;;;;;;;2.83;2.60;;;;;;;;;;5155866;27;20236;-69
2022/03/12 03:45:09;;;;;;;3.00;2.80;;;;;;;;;;5157419;27;20211;-69
2022/03/12 03:47:57;;;;;;;2.83;2.70;;;;;;;;;;5158042;27;20225;-69
2022/03/12 03:50:47;;;;;;;3.00;2.80;;;;;;;;;;5155426;27;20340;-69
2022/03/12 03:53:34;;;;;;;3.60;3.00;;;;;;;;;;5158066;27;20591;-69
2022/03/12 03:56:21;;;;;;;2.47;2.37;;;;;;;;;;5158379;27;20261;-68
2022/03/12 03:59:09;;;;;;;3.63;3.20;;;;;;;;;;5153881;27;20289;-68
2022/03/12 04:01:56;;;;;;;3.10;2.90;;;;;;;;;;5156663;27;20208;-68
2022/03/12 04:04:43;;;;;;;2.87;2.67;;;;;;;;;;5151731;27;20197;-68
2022/03/12 04:07:31;;;;;;;3.17;2.67;;;;;;;;;;5157458;27;20546;-69
2022/03/12 04:10:18;;;;;;;2.90;2.70;;;;;;;;;;5159276;27;20671;-69
2022/03/12 04:13:21;;;;;;;3.23;3.03;;;;;;;;;;5151532;27;20707;-68
2022/03/12 04:16:09;;;;;;;3.07;2.87;;;;;;;;;;5151127;27;20207;-68
2022/03/12 04:18:56;;;;;;;2.90;2.70;;;;;;;;;;5154951;27;20240;-69
2022/03/12 04:21:43;;;;;;;3.30;3.00;;;;;;;;;;5152659;27;20200;-68
2022/03/12 04:24:32;;;;;;;3.30;3.00;;;;;;;;;;5152521;27;20219;-69
2022/03/12 04:27:22;;;;;;;2.73;2.53;;;;;;;;;;5156013;27;20231;-69
2022/03/12 04:30:11;;;;;;;2.93;2.73;;;;;;;;;;5153649;27;20662;-69
2022/03/12 04:32:58;;;;;;;3.27;3.03;;;;;;;;;;5155660;27;20591;-68
2022/03/12 04:35:47;;;;;;;2.80;2.60;;;;;;;;;;5159159;27;20236;-69
2022/03/12 04:38:34;;;;;;;3.20;3.00;;;;;;;;;;5152733;27;20340;-69
2022/03/12 04:41:22;;;;;;;3.20;3.00;;;;;;;;;;5158046;27;20303;-68
2022/03/12 04:44:10;;;;;;;2.97;2.77;;;;;;;;;;5155420;27;20257;-68
2022/03/12 04:46:57;;;;;;;3.30;3.10;;;;;;;;;;5155796;27;20212;-68
2022/03/12 04:49:44;;;;;;;3.40;3.10;;;;;;;;;;5150819;27;20271;-69
2022/03/12 04:52:31;;;;;;;3.40;3.10;;;;;;;;;;5160962;27;20635;-69
2022/03/12 04:55:21;;;;;;;3.23;3.00;;;;;;;;;;5159374;27;20234;-69
2022/03/12 04:58:10;;;;;;;3.00;2.80;;;;;;;;;;5156699;27;20204;-68
2022/03/12 05:00:57;;;;;;;3.30;3.10;;;;;;;;;;5146870;27;20360;-68
2022/03/12 05:03:44;;;;;;;3.10;2.90;;;;;;;;;;5154487;27;20287;-68
2022/03/12 05:06:31;;;;;;;3.37;3.17;;;;;;;;;;5162422;27;20214;-69
2022/03/12 05:09:19;;;;;;;3.30;3.10;;;;;;;;;;5146734;27;20204;-68
2022/03/12 05:12:09;;;;;;;3.20;3.00;;;;;;;;;;5160161;27;20273;-69
2022/03/12 05:14:58;;;;;;;3.50;3.20;;;;;;;;;;5148984;27;20217;-69
2022/03/12 05:17:51;;;;;;;3.30;3.10;;;;;;;;;;5162548;27;20227;-69
2022/03/12 05:20:39;;;;;;;2.90;2.70;;;;;;;;;;5153437;27;20210;-69
2022/03/12 05:23:27;;;;;;;3.20;3.00;;;;;;;;;;5163294;27;20195;-69
2022/03/12 05:26:14;;;;;;;3.50;3.20;;;;;;;;;;5160992;27;20689;-68
2022/03/12 05:29:00;;;;;;;3.10;2.90;;;;;;;;;;5149659;27;20258;-69
2022/03/12 05:31:52;;;;;;;3.40;3.10;;;;;;;;;;5159595;27;20364;-69
2022/03/12 05:34:39;;;;;;;3.23;3.03;;;;;;;;;;5157298;27;20347;-68
2022/03/12 05:37:26;;;;;;;3.83;3.50;;;;;;;;;;5164666;27;20236;-69
2022/03/12 05:40:18;;;;;;;3.17;2.93;;;;;;;;;;5158159;27;20256;-69
2022/03/12 05:43:09;;;;;;;3.23;3.03;;;;;;;;;;5157648;27;20250;-68
2022/03/12 05:45:57;;;;;;;3.10;2.90;;;;;;;;;;5160141;27;20676;-68
2022/03/12 05:48:47;;;;;;;3.60;3.30;;;;;;;;;;5157487;27;20217;-69
2022/03/12 05:51:34;;;;;;;3.60;3.20;;;;;;;;;;5156011;27;20695;-68
2022/03/12 05:54:22;;;;;;;3.30;3.10;;;;;;;;;;5161624;27;20228;-68
2022/03/12 05:57:09;;;;;;;3.37;3.07;;;;;;;;;;5159894;27;20240;-68
2022/03/12 05:59:57;;;;;;;3.07;2.87;;;;;;;;;;5157762;27;20687;-69
2022/03/12 06:02:49;;;;;;;3.63;3.33;;;;;;;;;;5156804;27;20343;-69
2022/03/12 06:05:40;;;;;;;3.47;3.17;;;;;;;;;;5162203;27;20208;-69
2022/03/12 06:08:28;;;;;;;3.10;2.90;;;;;;;;;;5157208;27;20240;-68
2022/03/12 06:11:15;;;;;;;3.17;2.93;;;;;;;;;;5154000;27;20245;-69
2022/03/12 06:14:02;;;;;;;3.47;3.13;;;;;;;;;;5155324;27;20225;-69
2022/03/12 06:16:50;;;;;;;3.27;3.00;;;;;;;;;;5152850;27;20291;-69
2022/03/12 06:19:37;;;;;;;3.00;2.80;;;;;;;;;;5158294;27;20611;-69
2022/03/12 06:22:25;;;;;;;3.50;3.20;;;;;;;;;;5171912;27;20276;-70
2022/03/12 06:25:14;;;;;;;3.63;3.17;;;;;;;;;;5155958;27;20662;-69
2022/03/12 06:28:03;;;;;;;3.73;3.43;;;;;;;;;;5156339;27;20669;-69
2022/03/12 06:30:53;;;;;;;3.40;3.17;;;;;;;;;;5155627;27;20212;-69
2022/03/12 06:33:40;;;;;;;3.67;3.37;;;;;;;;;;5160440;27;20208;-69
2022/03/12 06:36:28;;;;;;;3.07;2.87;;;;;;;;;;5159693;27;20690;-69
2022/03/12 06:39:16;;;;;;;3.50;3.20;;;;;;;;;;5148283;27;20208;-73
2022/03/12 06:42:04;;;;;;;3.70;3.40;;;;;;;;;;5152057;27;20244;-72
2022/03/12 06:44:56;;;;;;;4.00;3.30;;;;;;;;;;5164771;27;20207;-72
2022/03/12 06:47:44;;;;;;;3.40;3.20;;;;;;;;;;5158942;27;20221;-73
2022/03/12 06:50:32;;;;;;;3.27;3.07;;;;;;;;;;5162691;27;20207;-73
2022/03/12 06:53:19;;;;;;;3.80;3.50;;;;;;;;;;5158328;27;20223;-73
2022/03/12 06:56:08;;;;;;;3.27;2.97;;;;;;;;;;5147729;27;20682;-72
2022/03/12 06:58:55;;;;;;;3.33;3.13;;;;;;;;;;5159073;27;20234;-72
2022/03/12 07:01:42;;;;;;;3.73;3.30;;;;;;;;;;5164215;27;20211;-73
2022/03/12 07:04:29;;;;;;;4.30;3.50;;;;;;;;;;5165522;27;20733;-73
2022/03/12 07:07:15;;;;;;;3.60;3.30;;;;;;;;;;5153891;27;20255;-70
2022/03/12 07:10:04;;;;;;;3.63;3.33;;;;;;;;;;5157262;27;20615;-71
2022/03/12 07:12:53;;;;;;;3.27;3.07;;;;;;;;;;5152290;27;20542;-71
2022/03/12 07:15:40;;;;;;;3.73;3.43;;;;;;;;;;5149519;27;20220;-71
2022/03/12 07:18:27;;;;;;;3.65;3.35;;;;;;;;;;5156775;27;20238;-71
2022/03/12 07:21:14;;;;;;;3.67;3.38;;;;;;;;;;5148112;27;20364;-71
2022/03/12 07:24:01;;;;;;;3.80;3.50;;;;;;;;;;5160237;27;20214;-70
2022/03/12 07:26:48;;;;;;;3.70;3.40;;;;;;;;;;5148324;27;20298;-70
2022/03/12 07:29:36;;;;;;;4.00;3.30;;;;;;;;;;5158946;27;20207;-70
2022/03/12 07:32:23;;;;;;;3.45;3.25;;;;;;;;;;5154184;27;20292;-70
2022/03/12 07:35:11;;;;;;;3.50;3.30;;;;;;;;;;5152335;27;20229;-69
2022/03/12 07:37:58;;;;;;;3.95;3.42;;;;;;;;;;5157517;27;20203;-69
2022/03/12 07:40:45;;;;;;;3.65;3.35;;;;;;;;;;5157067;27;20200;-68
2022/03/12 07:43:32;;;;;;;3.50;3.30;;;;;;;;;;5157223;27;20299;-71
2022/03/12 07:46:21;;;;;;;4.10;3.78;;;;;;;;;;5157578;27;20227;-71
2022/03/12 07:49:08;;;;;;;4.10;3.80;;;;;;;;;;5159852;27;20202;-71
2022/03/12 07:51:55;;;;;;;3.70;3.50;;;;;;;;;;5152013;27;20805;-71
2022/03/12 07:54:42;;;;;;;3.80;3.50;;;;;;;;;;5158901;27;20233;-71
2022/03/12 07:57:29;;;;;;;3.70;3.40;;;;;;;;;;5161765;27;20204;-71
2022/03/12 08:00:17;;;;;;;4.00;3.65;;;;;;;;;;5154854;27;20201;-69
2022/03/12 08:03:05;;;;;;;4.53;4.13;;;;;;;;;;5154830;27;20309;-70
2022/03/12 08:05:53;;;;;;;3.80;3.50;;;;;;;;;;5149103;27;20203;-71
2022/03/12 08:08:39;;;;;;;4.03;3.63;;;;;;;;;;5164507;27;20684;-70
2022/03/12 08:11:28;;;;;;;3.70;3.40;;;;;;;;;;5158895;27;20240;-70
2022/03/12 08:14:15;;;;;;;4.10;3.67;;;;;;;;;;5147154;27;20230;-67
2022/03/12 08:17:02;;;;;;;3.70;3.40;;;;;;;;;;5162353;27;20202;-67
2022/03/12 08:19:51;;;;;;;3.60;3.33;;;;;;;;;;5159250;27;20204;-68
2022/03/12 08:22:40;;;;;;;3.50;3.20;;;;;;;;;;5148651;27;20293;-67
2022/03/12 08:25:27;;;;;;;3.77;3.47;;;;;;;;;;5155235;27;20225;-67
2022/03/12 08:28:14;;;;;;;4.20;3.80;;;;;;;;;;5153695;27;20206;-67
2022/03/12 08:31:02;;;;;;;3.57;3.37;;;;;;;;;;5160069;27;20208;-67
2022/03/12 08:33:49;;;;;;;3.23;3.03;;;;;;;;;;5150874;27;20679;-67
2022/03/12 08:36:38;;;;;;;3.70;3.40;;;;;;;;;;5150878;27;20212;-66
2022/03/12 08:39:25;;;;;;;3.50;3.20;;;;;;;;;;5150132;27;20217;-68
2022/03/12 08:42:11;;;;;;;3.60;3.40;;;;;;;;;;5156699;27;20403;-67
2022/03/12 08:44:59;;;;;;;3.70;3.40;;;;;;;;;;5149908;27;20241;-67
2022/03/12 08:47:46;;;;;;;3.50;3.20;;;;;;;;;;5152328;27;20197;-67
2022/03/12 08:50:33;;;;;;;3.87;3.57;;;;;;;;;;5153013;27;20198;-67
2022/03/12 08:53:21;;;;;;;5.17;3.67;;;;;;;;;;5149975;27;20233;-67
2022/03/12 08:56:09;;;;;;;4.03;3.30;;;;;;;;;;5151274;27;20240;-67
2022/03/12 08:58:56;;;;;;;3.50;3.20;;;;;;;;;;5152256;27;20197;-67
2022/03/12 09:01:44;;;;;;;4.20;3.80;;;;;;;;;;5150427;27;20202;-67
2022/03/12 09:04:31;;;;;;;3.53;3.17;;;;;;;;;;5154177;27;20205;-67
2022/03/12 09:07:18;;;;;;;3.80;3.50;;;;;;;;;;5152999;27;20231;-67
2022/03/12 09:10:09;;;;;;;3.40;3.20;;;;;;;;;;5158829;27;20277;-67
2022/03/12 09:12:56;;;;;;;3.53;3.23;;;;;;;;;;5157523;27;20201;-67
2022/03/12 09:15:44;;;;;;;3.83;3.53;;;;;;;;;;5149839;27;20349;-67
2022/03/12 09:18:31;;;;;;;3.47;3.27;;;;;;;;;;5154456;27;20200;-67
2022/03/12 09:21:18;;;;;;;3.53;3.27;;;;;;;;;;5155512;27;20295;-67
2022/03/12 09:24:06;;;;;;;3.60;3.23;;;;;;;;;;5154052;27;20688;-67
2022/03/12 09:26:55;;;;;;;3.53;3.27;;;;;;;;;;5161173;27;20201;-67
2022/03/12 09:29:42;;;;;;;3.67;3.37;;;;;;;;;;5147308;27;20198;-68
2022/03/12 09:32:28;;;;;;;3.77;3.47;;;;;;;;;;5150887;27;20288;-68
2022/03/12 09:35:16;;;;;;;3.80;3.50;;;;;;;;;;5151660;27;20456;-68
2022/03/12 09:38:03;;;;;;;3.23;3.03;;;;;;;;;;5150678;27;20202;-68
2022/03/12 09:40:51;;;;;;;3.30;3.00;;;;;;;;;;5150023;27;20330;-68
2022/03/12 09:43:39;;;;;;;3.07;2.87;;;;;;;;;;5151500;27;20315;-68
2022/03/12 09:46:26;;;;;;;3.20;2.90;;;;;;;;;;5145563;27;20225;-68
2022/03/12 09:49:14;;;;;;;3.40;3.10;;;;;;;;;;5151398;27;20228;-68
2022/03/12 09:52:01;;;;;;;3.70;3.40;;;;;;;;;;5154440;27;20720;-68
2022/03/12 09:54:49;;;;;;;3.40;3.10;;;;;;;;;;5153477;27;20221;-68
2022/03/12 09:57:36;;;;;;;3.90;3.40;;;;;;;;;;5150722;27;20207;-68
2022/03/12 10:00:26;;;;;;;3.80;3.33;;;;;;;;;;5152723;27;20276;-68
2022/03/12 10:03:13;;;;;;;3.53;3.23;;;;;;;;;;5155039;27;20680;-67
2022/03/12 10:06:00;;;;;;;3.57;3.27;;;;;;;;;;5155627;27;20676;-68
2022/03/12 10:08:47;;;;;;;3.53;3.33;;;;;;;;;;5160534;27;20250;-68
2022/03/12 10:11:34;;;;;;;4.00;3.27;;;;;;;;;;5154658;27;20199;-68
2022/03/12 10:14:22;;;;;;;3.83;3.53;;;;;;;;;;5149182;27;20705;-67
2022/03/12 10:17:11;;;;;;;3.60;3.40;;;;;;;;;;5158222;27;20728;-68
2022/03/12 10:19:58;;;;;;;3.60;3.33;;;;;;;;;;5156125;27;20286;-68
2022/03/12 10:22:46;;;;;;;3.27;3.07;;;;;;;;;;5164706;27;20301;-69
2022/03/12 10:25:33;;;;;;;3.60;3.00;;;;;;;;;;5146999;27;20623;-68
2022/03/12 10:28:20;;;;;;;4.10;3.40;;;;;;;;;;5152081;27;20207;-68
2022/03/12 10:31:09;;;;;;;3.73;3.43;;;;;;;;;;5158359;27;20262;-68
2022/03/12 10:34:15;;;;;;;3.40;3.07;;;;;;;;;;5157408;27;20265;-68
2022/03/12 10:37:02;;;;;;;3.50;3.20;;;;;;;;;;5159200;27;20277;-68
2022/03/12 10:40:03;;;;;;;3.50;3.20;;;;;;;;;;5155997;27;20214;-69
2022/03/12 10:42:52;;;;;;;3.00;2.80;;;;;;;;;;5156057;27;20285;-68
2022/03/12 10:45:41;;;;;;;3.23;3.00;;;;;;;;;;5153235;27;20289;-68
2022/03/12 10:48:37;;;;;;;3.30;3.00;;;;;;;;;;5149831;27;20653;-68
2022/03/12 10:51:28;;;;;;;4.53;3.87;;;;;;;;;;5155580;27;20818;-68
2022/03/12 10:54:15;;;;;;;4.73;4.33;;;;;;;;;;5158671;27;20296;-67
2022/03/12 10:57:03;;;;;;;4.53;4.20;;;;;;;;;;5151426;27;20223;-67
2022/03/12 10:59:53;;;;;;;5.40;5.00;;;;;;;;;;5155906;27;20235;-68
2022/03/12 11:02:42;;;;;;;6.87;5.23;;;;;;;;;;5157371;27;20230;-67
2022/03/12 11:05:35;;;;;;;6.60;5.00;;;;;;;;;;5156472;27;20203;-68
2022/03/12 11:08:24;;;;;;;6.20;5.33;;;;;;;;;;5161648;27;20690;-68
2022/03/12 11:11:13;;;;;;;6.23;5.67;;;;;;;;;;5155296;27;20288;-69
2022/03/12 11:14:02;;;;;;;5.43;4.93;;;;;;;;;;5153157;27;20211;-67
2022/03/12 11:16:54;;;;;;;11.17;5.80;;;;;;;;;;5154924;27;20219;-68
2022/03/12 11:19:45;;;;;;;5.67;4.93;;;;;;;;;;5151678;27;20688;-67
2022/03/12 11:22:32;;;;;;;7.03;5.23;;;;;;;;;;5153909;27;20202;-68
2022/03/12 11:25:24;;;;;;;5.30;4.80;;;;;;;;;;5151933;27;20206;-67
2022/03/12 11:28:18;;;;;;;5.90;5.23;;;;;;;;;;5158033;27;20238;-67
2022/03/12 11:31:07;;;;;;;5.70;5.10;;;;;;;;;;5154193;27;20202;-67
2022/03/12 11:33:55;;;;;;;5.30;4.80;;;;;;;;;;5154774;27;20210;-67
2022/03/12 11:36:45;;;;;;;5.63;4.57;;;;;;;;;;5153472;27;20248;-67
2022/03/12 11:39:34;;;;;;;5.17;4.70;;;;;;;;;;5151083;27;20719;-67
2022/03/12 11:42:24;;;;;;;5.43;4.37;;;;;;;;;;5157949;27;20248;-67
2022/03/12 11:45:14;;;;;;;5.10;4.60;;;;;;;;;;5150552;27;20199;-67
2022/03/12 11:48:01;;;;;;;4.90;4.50;;;;;;;;;;5152843;27;20293;-67
2022/03/12 11:50:48;;;;;;;5.07;4.40;;;;;;;;;;5154228;27;20690;-67
2022/03/12 11:53:39;;;;;;;5.00;4.60;;;;;;;;;;5153985;27;20266;-67
2022/03/12 11:56:27;;;;;;;5.03;4.57;;;;;;;;;;5153855;27;20231;-67
2022/03/12 11:59:15;;;;;;;4.93;4.50;;;;;;;;;;5152601;27;20222;-67
2022/03/12 12:02:16;;;;;;;4.67;4.23;;;;;;;;;;5155913;27;20206;-67
2022/03/12 12:05:06;;;;;;;4.33;3.70;;;;;;;;;;5154603;27;20223;-67
2022/03/12 12:07:55;;;;;;;4.63;4.23;;;;;;;;;;5155664;27;20208;-67
2022/03/12 12:10:43;;;;;;;4.03;3.53;;;;;;;;;;5152073;27;20211;-68
2022/03/12 12:13:31;;;;;;;5.70;3.80;;;;;;;;;;5152638;27;20672;-67
2022/03/12 12:16:22;;;;;;;4.90;4.17;;;;;;;;;;5152495;27;20234;-67
2022/03/12 12:19:09;;;;;;;3.80;3.40;;;;;;;;;;5151252;27;20670;-67
2022/03/12 12:21:56;;;;;;;3.83;3.53;;;;;;;;;;5160143;27;20298;-67
2022/03/12 12:24:44;;;;;;;3.40;3.20;;;;;;;;;;5152859;27;20566;-67
2022/03/12 12:27:41;;;;;;;3.77;3.30;;;;;;;;;;5156367;27;20258;-67
2022/03/12 12:30:38;;;;;;;3.90;3.50;;;;;;;;;;5157992;27;20226;-67
2022/03/12 12:33:27;;;;;;;3.70;3.40;;;;;;;;;;5153026;27;20204;-67
2022/03/12 12:36:16;;;;;;;3.50;3.20;;;;;;;;;;5153396;27;20299;-67
2022/03/12 12:39:08;;;;;;;3.60;3.30;;;;;;;;;;5153567;27;20683;-67
2022/03/12 12:41:58;;;;;;;3.53;2.83;;;;;;;;;;5153583;27;20239;-67
2022/03/12 12:44:46;;;;;;;2.87;2.67;;;;;;;;;;5154669;27;20220;-67
2022/03/12 12:47:35;;;;;;;3.47;3.17;;;;;;;;;;5155221;27;20200;-66
2022/03/12 12:50:25;;;;;;;3.73;3.07;;;;;;;;;;5156882;27;20293;-68
2022/03/12 12:53:19;;;;;;;3.50;3.20;;;;;;;;;;5158404;27;20219;-68
2022/03/12 12:56:24;;;;;;;2.80;2.60;;;;;;;;;;5161594;27;20229;-68
2022/03/12 12:59:13;;;;;;;3.03;2.83;;;;;;;;;;5154190;27;20210;-67
2022/03/12 13:02:00;;;;;;;3.00;2.80;;;;;;;;;;5156086;27;20205;-67
2022/03/12 13:04:49;;;;;;;3.00;2.80;;;;;;;;;;5152831;27;20276;-67
2022/03/12 13:07:59;;;;;;;2.90;2.70;;;;;;;;;;5152902;27;20280;-67
2022/03/12 13:10:46;;;;;;;2.90;2.70;;;;;;;;;;5149500;27;20207;-68
2022/03/12 13:13:34;;;;;;;2.43;2.33;;;;;;;;;;5152921;27;20275;-68
2022/03/12 13:16:21;;;;;;;4.40;2.70;;;;;;;;;;5149624;27;20235;-67
2022/03/12 13:19:27;;;;;;;2.70;2.50;;;;;;;;;;5153099;27;20240;-67
2022/03/12 13:22:15;;;;;;;3.10;2.90;;;;;;;;;;5152525;27;20236;-67
2022/03/12 13:25:06;;;;;;;2.67;2.47;;;;;;;;;;5152999;27;20202;-67
2022/03/12 13:28:01;;;;;;;2.63;2.43;;;;;;;;;;5154107;27;20292;-66
2022/03/12 13:30:48;;;;;;;2.73;2.53;;;;;;;;;;5150909;27;20206;-66
2022/03/12 13:33:35;;;;;;;3.23;3.00;;;;;;;;;;5153176;27;20328;-66
2022/03/12 13:36:25;;;;;;;3.00;2.70;;;;;;;;;;5154994;27;20280;-66
2022/03/12 13:39:15;;;;;;;2.70;2.50;;;;;;;;;;5155222;27;20236;-67
2022/03/12 13:42:04;;;;;;;2.97;2.77;;;;;;;;;;5148952;27;20233;-67
2022/03/12 13:44:52;;;;;;;3.33;2.57;;;;;;;;;;5155200;27;20206;-67
2022/03/12 13:47:39;;;;;;;2.93;2.73;;;;;;;;;;5159784;27;20198;-67
2022/03/12 13:50:27;;;;;;;2.50;2.30;;;;;;;;;;5153012;27;20635;-67
2022/03/12 13:53:14;;;;;;;2.33;2.23;;;;;;;;;;5157714;27;20596;-67
2022/03/12 13:56:04;;;;;;;2.60;2.40;;;;;;;;;;5152834;27;20229;-67
2022/03/12 13:58:53;;;;;;;4.17;3.17;;;;;;;;;;5156463;27;20637;-68
2022/03/12 14:01:42;;;;;;;2.60;2.40;;;;;;;;;;5148212;27;20270;-68
2022/03/12 14:04:31;;;;;;;2.60;2.40;;;;;;;;;;5152173;27;20210;-68
2022/03/12 14:07:19;;;;;;;2.77;2.67;;;;;;;;;;5148968;27;20631;-68
2022/03/12 14:10:08;;;;;;;2.67;2.47;;;;;;;;;;5153128;27;20236;-68
2022/03/12 14:12:59;;;;;;;2.63;2.43;;;;;;;;;;5153106;27;20675;-68
2022/03/12 14:15:49;;;;;;;2.47;2.27;;;;;;;;;;5154338;27;20258;-69
2022/03/12 14:18:38;;;;;;;2.60;2.40;;;;;;;;;;5156891;27;20283;-68
2022/03/12 14:21:36;;;;;;;2.73;2.57;;;;;;;;;;5157535;27;20644;-69
2022/03/12 14:24:27;;;;;;;2.27;2.17;;;;;;;;;;5158246;27;20563;-68
2022/03/12 14:27:14;;;;;;;2.20;2.10;;;;;;;;;;5154294;27;20197;-67
2022/03/12 14:30:02;;;;;;;2.20;2.10;;;;;;;;;;5153923;27;20304;-67
2022/03/12 14:32:51;;;;;;;2.30;2.20;;;;;;;;;;5157075;27;20201;-67
2022/03/12 14:35:39;;;;;;;2.60;2.40;;;;;;;;;;5156358;27;20205;-67
2022/03/12 14:38:26;;;;;;;2.60;2.40;;;;;;;;;;5155237;27;20848;-67
2022/03/12 14:41:13;;;;;;;2.03;1.93;;;;;;;;;;5157153;27;20213;-67
2022/03/12 14:44:00;;;;;;;2.47;2.30;;;;;;;;;;5154203;27;20333;-67
2022/03/12 14:46:49;;;;;;;2.23;2.00;;;;;;;;;;5155662;27;20196;-68
2022/03/12 14:49:40;;;;;;;2.60;2.40;;;;;;;;;;5149304;27;20200;-67
2022/03/12 14:52:31;;;;;;;2.00;1.90;;;;;;;;;;5156518;27;20307;-68
2022/03/12 14:55:19;;;;;;;2.07;1.97;;;;;;;;;;5155934;27;20349;-67
2022/03/12 14:58:06;;;;;;;2.20;2.10;;;;;;;;;;5154875;27;20314;-67
2022/03/12 15:00:53;;;;;;;2.13;2.03;;;;;;;;;;5154237;27;20638;-67
2022/03/12 15:03:42;;;;;;;2.50;2.30;;;;;;;;;;5157047;27;20198;-67
2022/03/12 15:06:36;;;;;;;2.20;2.10;;;;;;;;;;5157759;27;20212;-67
2022/03/12 15:09:23;;;;;;;2.67;2.47;;;;;;;;;;5148791;27;20246;-67
2022/03/12 15:12:14;;;;;;;2.73;2.53;;;;;;;;;;5155273;27;20212;-67
2022/03/12 15:15:14;;;;;;;2.10;2.00;;;;;;;;;;5150856;27;20201;-67
2022/03/12 15:18:09;;;;;;;2.00;1.90;;;;;;;;;;5151140;27;20804;-68
2022/03/12 15:20:56;;;;;;;2.20;2.10;;;;;;;;;;5157048;27;20200;-67
2022/03/12 15:23:45;;;;;;;1.70;1.60;;;;;;;;;;5154644;27;20203;-68
2022/03/12 15:26:32;;;;;;;1.77;1.67;;;;;;;;;;5156059;27;20284;-67
2022/03/12 15:29:27;;;;;;;1.73;1.63;;;;;;;;;;5156179;27;20286;-68
2022/03/12 15:32:17;;;;;;;1.97;1.80;;;;;;;;;;5150274;27;20203;-67
2022/03/12 15:35:08;;;;;;;1.90;1.80;;;;;;;;;;5156354;27;20729;-67
2022/03/12 15:37:54;;;;;;;1.87;1.77;;;;;;;;;;5153628;27;20223;-67
2022/03/12 15:40:44;;;;;;;2.03;1.93;;;;;;;;;;5152216;27;20294;-67
2022/03/12 15:43:31;;;;;;;2.87;2.33;;;;;;;;;;5151085;27;20250;-67
2022/03/12 15:46:19;;;;;;;2.00;1.90;;;;;;;;;;5153434;27;20672;-67
2022/03/12 15:49:07;;;;;;;1.90;1.80;;;;;;;;;;5152826;27;20197;-68
2022/03/12 15:51:53;;;;;;;2.10;1.90;;;;;;;;;;5151620;27;20256;-68
2022/03/12 15:54:40;;;;;;;2.10;2.00;;;;;;;;;;5152263;27;20208;-67
2022/03/12 15:57:29;;;;;;;2.00;1.90;;;;;;;;;;5151183;27;20871;-67
2022/03/12 16:00:18;;;;;;;1.90;1.80;;;;;;;;;;5149335;27;20198;-67
2022/03/12 16:03:05;;;;;;;1.57;1.47;;;;;;;;;;5157138;27;20372;-67
2022/03/12 16:05:52;;;;;;;2.00;1.90;;;;;;;;;;5151790;27;20201;-67
2022/03/12 16:08:39;;;;;;;1.93;1.83;;;;;;;;;;5150929;27;20277;-67
2022/03/12 16:11:27;;;;;;;1.70;1.60;;;;;;;;;;5150754;27;20305;-67
2022/03/12 16:14:18;;;;;;;1.60;1.50;;;;;;;;;;5149299;27;20281;-67
2022/03/12 16:17:06;;;;;;;2.00;1.90;;;;;;;;;;5154201;27;20287;-66
2022/03/12 16:19:53;;;;;;;1.90;1.80;;;;;;;;;;5160248;27;20211;-67
2022/03/12 16:22:41;;;;;;;1.70;1.60;;;;;;;;;;5153383;27;20217;-67
2022/03/12 16:25:30;;;;;;;1.70;1.60;;;;;;;;;;5155958;27;20700;-68
2022/03/12 16:28:18;;;;;;;1.80;1.70;;;;;;;;;;5153621;27;20204;-67
2022/03/12 16:31:07;;;;;;;1.80;1.70;;;;;;;;;;5161526;27;20204;-67
2022/03/12 16:33:54;;;;;;;1.83;1.73;;;;;;;;;;5159097;27;20331;-68
2022/03/12 16:36:41;;;;;;;1.70;1.57;;;;;;;;;;5143620;27;20701;-68
2022/03/12 16:39:28;;;;;;;1.77;1.67;;;;;;;;;;5156654;27;20208;-67
2022/03/12 16:42:17;;;;;;;2.03;1.93;;;;;;;;;;5152271;27;20324;-67
2022/03/12 16:45:10;;;;;;;1.87;1.67;;;;;;;;;;5155340;27;20197;-67
2022/03/12 16:47:59;;;;;;;1.80;1.70;;;;;;;;;;5152119;27;20203;-67
2022/03/12 16:50:46;;;;;;;1.90;1.80;;;;;;;;;;5154958;27;20204;-68